sensor_id;sensor_type;location;lat;lon;timestamp;temperature;humidity
11093;DHT22;5600;50.864;6.102;2023-01-16T13:26:00;6.60;99.90
11093;DHT22;5600;50.864;6.102;2023-01-16T13:32:27;6.70;99.90
11093;DHT22;5600;50.864;6.102;2023-01-16T13:42:08;6.80;99.90
11093;DHT22;5600;50.864;6.102;2023-01-16T13:45:21;6.70;99.90
11093;DHT22;5600;50.864;6.102;2023-01-16T13:48:42;6.80;99.90
11093;DHT22;5600;50.864;6.102;2023-01-16T13:51:51;6.70;99.90
11093;DHT22;5600;50.864;6.102;2023-01-16T13:54:56;5.20;99.90
11093;DHT22;5600;50.864;6.102;2023-01-16T13:58:18;6.60;99.90
11093;DHT22;5600;50.864;6.102;2023-01-16T14:02:17;6.50;99.90
11093;DHT22;5600;50.864;6.102;2023-01-16T14:12:20;7.50;99.90
11093;DHT22;5600;50.864;6.102;2023-01-16T14:15:23;5.90;99.90
11093;DHT22;5600;50.864;6.102;2023-01-16T14:21:48;5.60;99.90
11093;DHT22;5600;50.864;6.102;2023-01-16T14:25:21;5.50;99.90
11093;DHT22;5600;50.864;6.102;2023-01-16T14:28:26;5.50;99.90
11093;DHT22;5600;50.864;6.102;2023-01-16T14:31:39;5.50;99.90
11093;DHT22;5600;50.864;6.102;2023-01-16T14:38:02;5.40;99.90
11093;DHT22;5600;50.864;6.102;2023-01-16T14:41:05;5.40;99.90
11093;DHT22;5600;50.864;6.102;2023-01-16T14:44:27;5.30;99.90
11093;DHT22;5600;50.864;6.102;2023-01-16T14:48:13;6.40;99.90
11093;DHT22;5600;50.864;6.102;2023-01-16T14:51:34;5.40;99.90
11093;DHT22;5600;50.864;6.102;2023-01-16T14:54:55;5.40;99.90
11093;DHT22;5600;50.864;6.102;2023-01-16T14:58:20;5.50;99.90
11093;DHT22;5600;50.864;6.102;2023-01-16T15:08:08;5.50;99.90
11093;DHT22;5600;50.864;6.102;2023-01-16T15:11:26;5.60;99.90
11093;DHT22;5600;50.864;6.102;2023-01-16T15:14:57;5.60;99.90
11093;DHT22;5600;50.864;6.102;2023-01-16T15:17:59;5.60;99.90
11093;DHT22;5600;50.864;6.102;2023-01-16T15:21:20;5.60;99.90
11093;DHT22;5600;50.864;6.102;2023-01-16T15:24:43;5.60;99.90
11093;DHT22;5600;50.864;6.102;2023-01-16T15:27:51;5.70;99.90
11093;DHT22;5600;50.864;6.102;2023-01-16T15:30:59;5.90;99.90
11093;DHT22;5600;50.864;6.102;2023-01-16T15:34:20;6.00;99.90
11093;DHT22;5600;50.864;6.102;2023-01-16T15:37:24;6.10;99.90
11093;DHT22;5600;50.864;6.102;2023-01-16T15:40:29;6.10;99.90
11093;DHT22;5600;50.864;6.102;2023-01-16T15:43:30;6.00;99.90
11093;DHT22;5600;50.864;6.102;2023-01-16T15:47:16;5.90;99.90
11093;DHT22;5600;50.864;6.102;2023-01-16T15:54:05;5.70;99.90
11093;DHT22;5600;50.864;6.102;2023-01-16T15:57:15;5.60;99.90
11093;DHT22;5600;50.864;6.102;2023-01-16T16:00:26;5.50;99.90
11093;DHT22;5600;50.864;6.102;2023-01-16T16:06:37;5.70;99.90
11093;DHT22;5600;50.864;6.102;2023-01-16T16:09:39;5.60;99.90
11093;DHT22;5600;50.864;6.102;2023-01-16T16:12:42;5.60;99.90
11093;DHT22;5600;50.864;6.102;2023-01-16T16:15:57;5.50;99.90
11093;DHT22;5600;50.864;6.102;2023-01-16T16:19:31;4.50;99.90
11093;DHT22;5600;50.864;6.102;2023-01-16T16:22:32;5.50;99.90
11093;DHT22;5600;50.864;6.102;2023-01-16T16:25:57;5.40;99.90
11093;DHT22;5600;50.864;6.102;2023-01-16T16:28:58;5.40;99.90
11093;DHT22;5600;50.864;6.102;2023-01-16T16:32:01;5.40;99.90
11093;DHT22;5600;50.864;6.102;2023-01-16T16:35:03;5.40;99.90
11093;DHT22;5600;50.864;6.102;2023-01-16T16:38:04;5.40;99.90
11093;DHT22;5600;50.864;6.102;2023-01-16T16:44:08;5.50;99.90
11093;DHT22;5600;50.864;6.102;2023-01-16T16:47:23;5.50;99.90
11093;DHT22;5600;50.864;6.102;2023-01-16T16:53:33;5.50;99.90
11093;DHT22;5600;50.864;6.102;2023-01-16T16:56:36;5.50;99.90
11093;DHT22;5600;50.864;6.102;2023-01-16T16:59:37;5.50;99.90
11093;DHT22;5600;50.864;6.102;2023-01-16T17:02:39;5.50;99.90
11093;DHT22;5600;50.864;6.102;2023-01-16T17:05:40;5.50;99.90
11093;DHT22;5600;50.864;6.102;2023-01-16T17:08:41;5.60;99.90
11093;DHT22;5600;50.864;6.102;2023-01-16T17:11:41;5.60;99.90
11093;DHT22;5600;50.864;6.102;2023-01-16T17:14:43;5.50;99.90
11093;DHT22;5600;50.864;6.102;2023-01-16T17:17:45;5.50;99.90
11093;DHT22;5600;50.864;6.102;2023-01-16T17:20:46;5.40;99.90
11093;DHT22;5600;50.864;6.102;2023-01-16T17:23:47;5.40;99.90
11093;DHT22;5600;50.864;6.102;2023-01-16T17:26:48;5.30;99.90
11093;DHT22;5600;50.864;6.102;2023-01-16T17:29:49;5.30;99.90
11093;DHT22;5600;50.864;6.102;2023-01-16T17:32:56;5.20;99.90
11093;DHT22;5600;50.864;6.102;2023-01-16T17:35:58;5.20;99.90
11093;DHT22;5600;50.864;6.102;2023-01-16T17:39:11;5.20;99.90
11093;DHT22;5600;50.864;6.102;2023-01-16T17:42:11;5.10;99.90
11093;DHT22;5600;50.864;6.102;2023-01-16T17:45:34;5.10;99.90
11093;DHT22;5600;50.864;6.102;2023-01-16T17:48:55;5.10;99.90
11093;DHT22;5600;50.864;6.102;2023-01-16T17:51:56;5.00;99.90
11093;DHT22;5600;50.864;6.102;2023-01-16T17:54:57;5.00;99.90
11093;DHT22;5600;50.864;6.102;2023-01-16T17:58:26;4.90;99.90
11093;DHT22;5600;50.864;6.102;2023-01-16T18:01:42;4.90;99.90
11093;DHT22;5600;50.864;6.102;2023-01-16T18:04:43;4.80;99.90
11093;DHT22;5600;50.864;6.102;2023-01-16T18:07:43;4.90;99.90
11093;DHT22;5600;50.864;6.102;2023-01-16T18:10:44;4.90;99.90
11093;DHT22;5600;50.864;6.102;2023-01-16T18:13:45;4.80;99.90
11093;DHT22;5600;50.864;6.102;2023-01-16T18:17:04;4.80;99.90
11093;DHT22;5600;50.864;6.102;2023-01-16T18:20:24;4.80;99.90
11093;DHT22;5600;50.864;6.102;2023-01-16T18:23:25;4.90;99.90
11093;DHT22;5600;50.864;6.102;2023-01-16T18:26:26;4.80;99.90
11093;DHT22;5600;50.864;6.102;2023-01-16T18:29:26;4.80;99.90
11093;DHT22;5600;50.864;6.102;2023-01-16T18:32:27;4.70;99.90
11093;DHT22;5600;50.864;6.102;2023-01-16T18:35:28;4.50;99.90
11093;DHT22;5600;50.864;6.102;2023-01-16T18:38:33;4.40;99.90
11093;DHT22;5600;50.864;6.102;2023-01-16T18:41:52;4.40;99.90
11093;DHT22;5600;50.864;6.102;2023-01-16T18:45:13;4.40;99.90
11093;DHT22;5600;50.864;6.102;2023-01-16T18:48:33;4.20;99.90
11093;DHT22;5600;50.864;6.102;2023-01-16T18:51:52;4.20;99.90
11093;DHT22;5600;50.864;6.102;2023-01-16T18:55:13;4.10;99.90
11093;DHT22;5600;50.864;6.102;2023-01-16T18:58:32;4.00;99.90
11093;DHT22;5600;50.864;6.102;2023-01-16T19:01:52;4.00;99.90
11093;DHT22;5600;50.864;6.102;2023-01-16T19:04:55;4.00;99.90
11093;DHT22;5600;50.864;6.102;2023-01-16T19:07:58;3.90;99.90
11093;DHT22;5600;50.864;6.102;2023-01-16T19:10:59;3.80;99.90
11093;DHT22;5600;50.864;6.102;2023-01-16T19:14:00;3.80;99.90
11093;DHT22;5600;50.864;6.102;2023-01-16T19:17:01;3.70;99.90
11093;DHT22;5600;50.864;6.102;2023-01-16T19:20:01;3.80;99.90
11093;DHT22;5600;50.864;6.102;2023-01-16T19:23:03;3.70;99.90
11093;DHT22;5600;50.864;6.102;2023-01-16T19:26:04;3.80;99.90
11093;DHT22;5600;50.864;6.102;2023-01-16T19:29:05;3.80;99.90
11093;DHT22;5600;50.864;6.102;2023-01-16T19:32:06;3.80;99.90
11093;DHT22;5600;50.864;6.102;2023-01-16T19:35:08;3.90;99.90
11093;DHT22;5600;50.864;6.102;2023-01-16T19:38:09;3.90;99.90
11093;DHT22;5600;50.864;6.102;2023-01-16T19:41:10;3.90;99.90
11093;DHT22;5600;50.864;6.102;2023-01-16T19:44:30;3.90;99.90
11093;DHT22;5600;50.864;6.102;2023-01-16T19:47:52;4.00;99.90
11093;DHT22;5600;50.864;6.102;2023-01-16T19:50:53;4.00;99.90
11093;DHT22;5600;50.864;6.102;2023-01-16T19:53:54;4.00;99.90
11093;DHT22;5600;50.864;6.102;2023-01-16T19:56:55;4.00;99.90
11093;DHT22;5600;50.864;6.102;2023-01-16T19:59:56;4.00;99.90
11093;DHT22;5600;50.864;6.102;2023-01-16T20:02:57;4.00;99.90
11093;DHT22;5600;50.864;6.102;2023-01-16T20:05:57;4.10;99.90
11093;DHT22;5600;50.864;6.102;2023-01-16T20:09:00;4.10;99.90
11093;DHT22;5600;50.864;6.102;2023-01-16T20:12:02;4.10;99.90
11093;DHT22;5600;50.864;6.102;2023-01-16T20:15:22;4.00;99.90
11093;DHT22;5600;50.864;6.102;2023-01-16T20:18:22;4.10;99.90
11093;DHT22;5600;50.864;6.102;2023-01-16T20:21:23;4.10;99.90
11093;DHT22;5600;50.864;6.102;2023-01-16T20:24:23;4.00;99.90
11093;DHT22;5600;50.864;6.102;2023-01-16T20:27:24;4.10;99.90
11093;DHT22;5600;50.864;6.102;2023-01-16T20:30:25;4.10;99.90
11093;DHT22;5600;50.864;6.102;2023-01-16T20:33:44;4.10;99.90
11093;DHT22;5600;50.864;6.102;2023-01-16T20:36:45;4.10;99.90
11093;DHT22;5600;50.864;6.102;2023-01-16T20:39:47;4.00;99.90
11093;DHT22;5600;50.864;6.102;2023-01-16T20:42:49;4.00;99.90
11093;DHT22;5600;50.864;6.102;2023-01-16T20:46:08;4.00;99.90
11093;DHT22;5600;50.864;6.102;2023-01-16T20:49:09;3.90;99.90
11093;DHT22;5600;50.864;6.102;2023-01-16T20:52:11;3.80;99.90
11093;DHT22;5600;50.864;6.102;2023-01-16T20:55:14;3.80;99.90
11093;DHT22;5600;50.864;6.102;2023-01-16T20:58:15;3.70;99.90
11093;DHT22;5600;50.864;6.102;2023-01-16T21:01:16;3.60;99.90
11093;DHT22;5600;50.864;6.102;2023-01-16T21:04:18;3.60;99.90
11093;DHT22;5600;50.864;6.102;2023-01-16T21:07:19;3.50;99.90
11093;DHT22;5600;50.864;6.102;2023-01-16T21:10:20;3.50;99.90
11093;DHT22;5600;50.864;6.102;2023-01-16T21:13:20;3.40;99.90
11093;DHT22;5600;50.864;6.102;2023-01-16T21:16:42;3.40;99.90
11093;DHT22;5600;50.864;6.102;2023-01-16T21:20:02;3.30;99.90
11093;DHT22;5600;50.864;6.102;2023-01-16T21:23:21;3.20;99.90
11093;DHT22;5600;50.864;6.102;2023-01-16T21:26:22;3.20;99.90
11093;DHT22;5600;50.864;6.102;2023-01-16T21:29:22;3.10;99.90
11093;DHT22;5600;50.864;6.102;2023-01-16T21:32:23;3.10;99.90
11093;DHT22;5600;50.864;6.102;2023-01-16T21:35:25;3.10;99.90
11093;DHT22;5600;50.864;6.102;2023-01-16T21:38:25;3.00;99.90
11093;DHT22;5600;50.864;6.102;2023-01-16T21:41:26;3.00;99.90
11093;DHT22;5600;50.864;6.102;2023-01-16T21:44:27;3.00;99.90
11093;DHT22;5600;50.864;6.102;2023-01-16T21:47:46;3.00;99.90
11093;DHT22;5600;50.864;6.102;2023-01-16T21:50:47;3.10;99.90
11093;DHT22;5600;50.864;6.102;2023-01-16T21:53:47;3.20;99.90
11093;DHT22;5600;50.864;6.102;2023-01-16T21:56:48;3.30;99.90
11093;DHT22;5600;50.864;6.102;2023-01-16T21:59:49;3.30;99.90
11093;DHT22;5600;50.864;6.102;2023-01-16T22:02:51;3.40;99.90
11093;DHT22;5600;50.864;6.102;2023-01-16T22:05:51;3.40;99.90
11093;DHT22;5600;50.864;6.102;2023-01-16T22:08:54;3.40;99.90
11093;DHT22;5600;50.864;6.102;2023-01-16T22:11:55;3.40;99.90
11093;DHT22;5600;50.864;6.102;2023-01-16T22:15:37;3.30;99.90
11093;DHT22;5600;50.864;6.102;2023-01-16T22:18:56;3.30;99.90
11093;DHT22;5600;50.864;6.102;2023-01-16T22:21:58;3.20;99.90
11093;DHT22;5600;50.864;6.102;2023-01-16T22:25:01;3.20;99.90
11093;DHT22;5600;50.864;6.102;2023-01-16T22:28:11;3.20;99.90
11093;DHT22;5600;50.864;6.102;2023-01-16T22:31:15;3.10;99.90
11093;DHT22;5600;50.864;6.102;2023-01-16T22:34:17;2.90;99.90
11093;DHT22;5600;50.864;6.102;2023-01-16T22:37:19;2.70;99.90
11093;DHT22;5600;50.864;6.102;2023-01-16T22:40:20;2.70;99.90
11093;DHT22;5600;50.864;6.102;2023-01-16T22:43:20;2.60;99.90
11093;DHT22;5600;50.864;6.102;2023-01-16T22:46:39;2.50;99.90
11093;DHT22;5600;50.864;6.102;2023-01-16T22:49:40;2.60;99.90
11093;DHT22;5600;50.864;6.102;2023-01-16T22:52:42;2.70;99.90
11093;DHT22;5600;50.864;6.102;2023-01-16T22:55:51;2.70;99.90
11093;DHT22;5600;50.864;6.102;2023-01-16T22:58:52;2.60;99.90
11093;DHT22;5600;50.864;6.102;2023-01-16T23:01:53;2.50;99.90
11093;DHT22;5600;50.864;6.102;2023-01-16T23:04:53;2.30;99.90
11093;DHT22;5600;50.864;6.102;2023-01-16T23:07:54;2.30;99.90
11093;DHT22;5600;50.864;6.102;2023-01-16T23:11:14;2.20;99.90
11093;DHT22;5600;50.864;6.102;2023-01-16T23:14:19;2.20;99.90
11093;DHT22;5600;50.864;6.102;2023-01-16T23:17:20;2.20;99.90
11093;DHT22;5600;50.864;6.102;2023-01-16T23:20:21;2.20;99.90
11093;DHT22;5600;50.864;6.102;2023-01-16T23:23:21;2.40;99.90
11093;DHT22;5600;50.864;6.102;2023-01-16T23:26:22;2.40;99.90
11093;DHT22;5600;50.864;6.102;2023-01-16T23:29:23;2.50;99.90
11093;DHT22;5600;50.864;6.102;2023-01-16T23:32:24;2.60;99.90
11093;DHT22;5600;50.864;6.102;2023-01-16T23:35:27;2.70;99.90
11093;DHT22;5600;50.864;6.102;2023-01-16T23:38:27;2.70;99.90
11093;DHT22;5600;50.864;6.102;2023-01-16T23:41:28;2.80;99.90
11093;DHT22;5600;50.864;6.102;2023-01-16T23:44:48;2.90;99.90
11093;DHT22;5600;50.864;6.102;2023-01-16T23:47:48;3.00;99.90
11093;DHT22;5600;50.864;6.102;2023-01-16T23:50:49;3.00;99.90
11093;DHT22;5600;50.864;6.102;2023-01-16T23:53:49;3.00;99.90
11093;DHT22;5600;50.864;6.102;2023-01-16T23:56:51;3.00;99.90
11093;DHT22;5600;50.864;6.102;2023-01-16T23:59:52;3.00;99.90
